createdAt,value
2022-11-04T00:00:34.742Z,8.0
2022-11-04T00:05:34.696Z,7.9
2022-11-04T00:10:34.887Z,7.9
2022-11-04T00:15:34.748Z,7.8
2022-11-04T00:20:34.641Z,7.8
2022-11-04T00:25:34.921Z,7.9
2022-11-04T00:30:34.589Z,7.9
2022-11-04T00:35:34.650Z,7.9
2022-11-04T00:40:34.769Z,7.9
2022-11-04T00:45:35.971Z,7.9
2022-11-04T00:50:34.666Z,8.0
2022-11-04T00:55:34.645Z,8.0
2022-11-04T01:00:34.742Z,8.1
2022-11-04T01:05:34.779Z,8.2
2022-11-04T01:10:34.892Z,8.3
2022-11-04T01:15:34.565Z,8.3
2022-11-04T01:20:34.639Z,8.3
2022-11-04T01:25:35.036Z,8.3
2022-11-04T01:30:34.655Z,8.3
2022-11-04T01:35:34.770Z,8.3
2022-11-04T01:40:34.985Z,8.2
2022-11-04T01:45:34.520Z,8.2
2022-11-04T01:50:34.489Z,8.2
2022-11-04T01:55:34.602Z,8.1
2022-11-04T02:00:34.596Z,8.1
2022-11-04T02:05:34.556Z,8.2
2022-11-04T02:10:34.580Z,8.2
2022-11-04T02:15:34.448Z,8.3
2022-11-04T02:20:34.393Z,8.4
2022-11-04T02:25:34.593Z,8.4
2022-11-04T02:30:34.424Z,8.5
2022-11-04T02:35:34.456Z,8.5
2022-11-04T02:40:34.602Z,8.6
2022-11-04T02:45:34.374Z,8.6
2022-11-04T02:50:34.432Z,8.7
2022-11-04T02:55:34.622Z,8.7
2022-11-04T03:00:34.375Z,8.8
2022-11-04T03:05:34.394Z,8.8
2022-11-04T03:10:34.663Z,8.8
2022-11-04T03:15:34.359Z,8.8
2022-11-04T03:20:34.357Z,8.8
2022-11-04T03:25:34.749Z,8.8
2022-11-04T03:30:34.350Z,8.8
2022-11-04T03:35:34.365Z,8.8
2022-11-04T03:40:34.440Z,8.8
2022-11-04T03:45:34.363Z,8.8
2022-11-04T03:50:34.304Z,8.7
2022-11-04T03:55:34.594Z,8.6
2022-11-04T04:00:34.288Z,8.6
2022-11-04T04:05:34.273Z,8.5
2022-11-04T04:10:34.540Z,8.4
2022-11-04T04:15:34.238Z,8.4
2022-11-04T04:20:34.301Z,8.3
2022-11-04T04:25:34.467Z,8.2
2022-11-04T04:30:34.285Z,8.2
2022-11-04T04:35:34.196Z,8.1
2022-11-04T04:40:34.588Z,8.0
2022-11-04T04:45:34.752Z,7.9
2022-11-04T04:50:34.277Z,7.9
2022-11-04T04:55:39.010Z,7.8
2022-11-04T05:00:34.218Z,7.8
2022-11-04T05:05:34.184Z,7.7
2022-11-04T05:10:34.353Z,7.7
2022-11-04T05:15:34.118Z,7.8
2022-11-04T05:20:34.328Z,7.8
2022-11-04T05:25:34.328Z,7.8
2022-11-04T05:30:34.108Z,7.8
2022-11-04T05:35:34.152Z,7.8
2022-11-04T05:40:34.394Z,7.8
2022-11-04T05:45:34.162Z,7.8
2022-11-04T05:50:34.125Z,7.9
2022-11-04T05:55:34.326Z,7.9
2022-11-04T06:00:34.052Z,8.0
2022-11-04T06:05:34.051Z,8.1
2022-11-04T06:10:34.233Z,8.2
2022-11-04T06:15:34.067Z,8.3
2022-11-04T06:20:34.008Z,8.3
2022-11-04T06:25:34.221Z,8.4
2022-11-04T06:30:33.994Z,8.4
2022-11-04T06:35:34.019Z,8.4
2022-11-04T06:40:34.181Z,8.4
2022-11-04T06:45:34.124Z,8.5
2022-11-04T06:50:34.153Z,8.6
2022-11-04T06:55:34.273Z,8.6
2022-11-04T07:00:33.931Z,8.7
2022-11-04T07:05:33.910Z,8.9
2022-11-04T07:10:34.208Z,9.1
2022-11-04T07:15:33.944Z,9.2
2022-11-04T07:20:33.883Z,9.4
2022-11-04T07:25:34.059Z,9.5
2022-11-04T07:30:33.949Z,9.7
2022-11-04T07:35:33.848Z,9.8
2022-11-04T07:40:34.077Z,9.9
2022-11-04T07:45:33.908Z,10.0
2022-11-04T07:50:34.002Z,10.3
2022-11-04T07:55:36.790Z,10.6
2022-11-04T08:00:34.015Z,10.8
2022-11-04T08:05:33.983Z,10.9
2022-11-04T08:10:34.067Z,10.9
2022-11-04T08:15:34.012Z,11.0
2022-11-04T08:20:34.117Z,11.0
2022-11-04T08:25:33.853Z,11.0
2022-11-04T08:30:33.798Z,11.0
2022-11-04T08:35:38.320Z,10.9
2022-11-04T08:40:34.035Z,10.9
2022-11-04T08:45:33.946Z,10.9
2022-11-04T08:50:33.775Z,10.9
2022-11-04T08:55:33.875Z,10.9
2022-11-04T09:00:33.820Z,10.9
2022-11-04T09:05:33.720Z,11.0
2022-11-04T09:10:34.090Z,11.0
2022-11-04T09:15:34.231Z,11.1
2022-11-04T09:20:33.737Z,11.1
2022-11-04T09:25:34.176Z,11.2
2022-11-04T09:30:33.749Z,11.3
2022-11-04T09:35:33.759Z,11.4
2022-11-04T09:40:33.883Z,11.4
2022-11-04T09:45:33.666Z,11.5
2022-11-04T09:50:33.662Z,11.6
2022-11-04T09:55:33.888Z,11.7
2022-11-04T10:00:33.882Z,11.8
2022-11-04T10:05:33.786Z,11.8
2022-11-04T10:10:34.048Z,11.9
2022-11-04T10:15:33.726Z,12.0
2022-11-04T10:20:33.729Z,12.1
2022-11-04T10:25:33.968Z,12.2
2022-11-04T10:30:33.631Z,12.3
2022-11-04T10:35:33.628Z,12.3
2022-11-04T10:40:33.696Z,12.4
2022-11-04T10:45:33.608Z,12.5
2022-11-04T10:50:33.680Z,12.6
2022-11-04T10:55:34.055Z,12.8
2022-11-04T11:00:33.702Z,13.0
2022-11-04T11:05:33.597Z,13.2
2022-11-04T11:10:33.741Z,13.3
2022-11-04T11:30:33.633Z,8.8
2022-11-04T11:35:33.500Z,13.5
2022-11-04T11:40:33.503Z,13.5
2022-11-04T11:45:33.518Z,13.5
2022-11-04T11:50:33.460Z,13.5
2022-11-04T11:55:33.653Z,13.5
2022-11-04T12:00:36.684Z,13.5
2022-11-04T12:10:49.844Z,13.5
2022-11-04T12:15:33.572Z,13.6
2022-11-04T12:20:33.430Z,13.6
2022-11-04T12:25:33.767Z,13.6
2022-11-04T12:30:38.140Z,13.7
2022-11-04T12:35:33.439Z,13.7
2022-11-04T12:40:33.558Z,13.7
2022-11-04T12:45:33.366Z,13.8
2022-11-04T12:50:33.392Z,13.9
2022-11-04T12:55:33.591Z,13.9
2022-11-04T13:05:33.811Z,13.9
2022-11-04T13:10:33.322Z,13.9
2022-11-04T13:15:33.628Z,13.9
2022-11-04T13:20:33.764Z,13.9
2022-11-04T13:25:33.444Z,13.8
2022-11-04T13:30:33.826Z,13.8
2022-11-04T13:35:33.785Z,13.8
2022-11-04T13:40:33.637Z,13.8
2022-11-04T13:45:33.955Z,13.8
2022-11-04T13:50:33.584Z,13.8
2022-11-04T13:55:33.323Z,13.7
2022-11-04T14:00:33.291Z,13.7
2022-11-04T14:05:33.493Z,13.7
2022-11-04T14:10:33.677Z,13.6
2022-11-04T14:15:33.695Z,13.6
2022-11-04T14:20:34.270Z,13.5
2022-11-04T14:25:34.024Z,13.4
2022-11-04T14:30:34.320Z,13.4
2022-11-04T14:35:34.272Z,13.3
2022-11-04T14:40:33.339Z,13.2
2022-11-04T14:45:33.429Z,13.1
2022-11-04T14:50:33.460Z,13.1
2022-11-04T14:55:33.305Z,13.0
2022-11-04T15:00:33.292Z,12.9
2022-11-04T15:05:33.416Z,12.9
2022-11-04T15:10:33.208Z,12.8
2022-11-04T15:15:33.300Z,12.7
2022-11-04T15:20:33.962Z,12.7
2022-11-04T15:25:33.179Z,12.6
2022-11-04T15:30:33.180Z,12.6
2022-11-04T15:35:33.363Z,12.5
2022-11-04T15:40:33.232Z,12.4
2022-11-04T15:45:33.137Z,12.4
2022-11-04T15:50:33.321Z,12.3
2022-11-04T15:55:33.238Z,12.3
2022-11-04T16:00:34.155Z,12.2
2022-11-04T16:05:34.043Z,12.2
2022-11-04T16:10:34.087Z,12.1
2022-11-04T16:15:33.994Z,12.0
2022-11-04T16:20:34.095Z,11.9
2022-11-04T16:25:33.977Z,11.8
2022-11-04T16:30:33.869Z,11.8
2022-11-04T16:35:33.098Z,11.7
2022-11-04T16:40:33.177Z,11.7
2022-11-04T16:45:33.236Z,11.7
2022-11-04T16:50:33.149Z,11.7
2022-11-04T16:55:33.216Z,11.7
2022-11-04T17:00:33.211Z,11.6
2022-11-04T17:05:33.026Z,11.6
2022-11-04T17:10:32.973Z,11.6
2022-11-04T17:15:33.139Z,11.6
2022-11-04T17:20:32.961Z,11.6
2022-11-04T17:25:33.100Z,11.6
2022-11-04T17:30:33.861Z,11.6
2022-11-04T17:35:32.989Z,11.6
2022-11-04T17:40:33.346Z,11.6
2022-11-04T17:45:33.381Z,11.6
2022-11-04T17:50:32.951Z,11.6
2022-11-04T17:55:33.069Z,11.6
2022-11-04T18:00:33.488Z,11.6
2022-11-04T18:05:33.449Z,11.6
2022-11-04T18:10:33.128Z,11.6
2022-11-04T18:15:33.435Z,11.6
2022-11-04T18:20:33.039Z,11.6
2022-11-04T18:25:33.209Z,11.6
2022-11-04T18:30:37.555Z,11.6
2022-11-04T18:35:32.799Z,11.6
2022-11-04T18:40:32.895Z,11.6
2022-11-04T18:45:32.906Z,11.6
2022-11-04T18:50:32.887Z,11.7
2022-11-04T18:55:32.812Z,11.7
2022-11-04T19:00:32.899Z,11.7
2022-11-04T19:05:32.973Z,11.7
2022-11-04T19:10:35.985Z,11.6
2022-11-04T19:15:32.872Z,11.6
2022-11-04T19:20:32.894Z,11.5
2022-11-04T19:25:32.969Z,11.4
2022-11-04T19:30:32.710Z,11.3
2022-11-04T19:35:32.745Z,11.2
2022-11-04T19:40:32.711Z,11.1
2022-11-04T19:45:32.897Z,11.0
2022-11-04T19:50:32.694Z,11.0
2022-11-04T19:55:32.844Z,11.0
2022-11-04T20:00:33.349Z,10.9
2022-11-04T20:05:32.812Z,10.9
2022-11-04T20:10:33.844Z,10.9
2022-11-04T20:15:32.887Z,10.9
2022-11-04T20:20:32.874Z,10.9
2022-11-04T20:25:32.677Z,10.9
2022-11-04T20:30:33.037Z,10.9
2022-11-04T20:35:32.698Z,10.9
2022-11-04T20:40:32.972Z,10.9
2022-11-04T20:45:32.636Z,10.9
2022-11-04T20:55:32.652Z,10.8
2022-11-04T21:00:32.590Z,10.8
2022-11-04T21:05:32.785Z,10.8
2022-11-04T21:10:32.614Z,10.7
2022-11-04T21:15:32.711Z,10.7
2022-11-04T21:20:32.746Z,10.7
2022-11-04T21:25:32.567Z,10.7
2022-11-04T21:30:33.326Z,10.7
2022-11-04T21:35:32.788Z,10.7
2022-11-04T21:40:32.585Z,10.6
2022-11-04T21:45:32.559Z,10.6
2022-11-04T21:50:32.711Z,10.6
2022-11-04T21:55:32.481Z,10.6
2022-11-04T22:00:32.605Z,10.6
2022-11-04T22:05:32.929Z,10.7
2022-11-04T22:10:32.637Z,10.7
2022-11-04T22:15:33.705Z,10.7
2022-11-04T22:20:32.416Z,10.6
2022-11-04T22:25:32.467Z,10.6
2022-11-04T22:30:32.513Z,10.6
2022-11-04T22:35:32.702Z,10.6
2022-11-04T22:40:32.537Z,10.6
2022-11-04T22:45:32.628Z,10.6
2022-11-04T22:50:33.055Z,10.6
2022-11-04T22:55:32.482Z,10.6
2022-11-04T23:00:32.416Z,10.7
2022-11-04T23:05:32.550Z,10.7
2022-11-04T23:10:38.075Z,10.7
2022-11-04T23:15:32.348Z,10.7
2022-11-04T23:20:32.386Z,10.6
2022-11-04T23:25:32.410Z,10.6
2022-11-04T23:30:32.388Z,10.5
2022-11-04T23:35:32.550Z,10.5
2022-11-04T23:40:32.337Z,10.5
2022-11-04T23:45:32.436Z,10.5
2022-11-04T23:50:32.591Z,10.5
2022-11-04T23:55:32.390Z,10.5
